Flight Track Log - Related Links

Times and Time Zones

All times are in EDT time to prevent confusion due to time zone crossing. See the CTL13 flight status page for this flight to view local times or setup timezone preferences in your user account.

Time Position Orientation Groundspeed Altitude Reporting Facility
EDT Latitude Longitude Course Direction KTS MPH feet Rate Location/Type
Tue 06:32:37 PM 41.5317 -81.6678 39° Northeast 129 148 1,100  Level Cleveland Center
Tue 06:33:31 PM 41.5569 -81.6403 39° Northeast 135 155 2,100 1,096 Climbing Cleveland Center
Tue 06:34:32 PM 41.5858 -81.6853 311° West 142 163 3,200 983 Climbing Cleveland Center
Tue 06:35:27 PM 41.6019 -81.7217 301° West 139 160 4,000 936 Climbing Cleveland Center
Tue 06:36:21 PM 41.6183 -81.7636 298° West 140 161 4,900 881 Climbing Cleveland Center
Tue 06:37:16 PM 41.6136 -81.8078 262° West 145 167 5,600 626 Climbing Cleveland Center
Tue 06:38:16 PM 41.5964 -81.8547 244° Southwest 149 171 6,100 496 Climbing Cleveland Center
Tue 06:39:17 PM 41.5772 -81.9017 241° Southwest 146 168 6,600 422 Climbing Cleveland Center
Tue 06:40:24 PM 41.5536 -81.9594 241° Southwest 153 176 7,000 397 Climbing Cleveland Center
Tue 06:41:18 PM 41.5342 -82.0089 242° Southwest 153 176 7,400 417 Climbing Cleveland Center
Tue 06:42:19 PM 41.5147 -82.0583 242° Southwest 154 177 7,800 295 Climbing Cleveland Center
Tue 06:43:20 PM 41.4933 -82.1050 239° Southwest 156 180 8,000 90 Climbing Cleveland Center
Tue 06:44:32 PM 41.4653 -82.1736 241° Southwest 172 198 8,000  Level Cleveland Center
Tue 06:45:39 PM 41.4414 -82.2311 241° Southwest 165 190 8,000  Level Cleveland Center
Tue 06:47:00 PM 41.4052 -82.2914 231° Southwest  Level FlightAware Approximate
Tue 06:54:00 PM 41.2530 -82.6372 238° Southwest  Level FlightAware Approximate
Tue 06:55:00 PM 41.2304 -82.6857 238° Southwest  Level FlightAware Approximate
Tue 06:56:00 PM 41.2079 -82.7342 238° Southwest  Level FlightAware Approximate
Tue 06:57:00 PM 41.1853 -82.7826 238° Southwest  Level FlightAware Approximate
Tue 06:57:29 PM 41.1878 -82.8431 240° Southwest 162 186 8,000  Level Indianapolis Center
Tue 06:58:00 PM 41.1627 -82.8310 238° Southwest  Level FlightAware Approximate
Tue 06:58:31 PM 41.1658 -82.8956 241° Southwest 162 186 8,000  Level Indianapolis Center
Tue 06:59:00 PM 41.1400 -82.8793 238° Southwest  Level FlightAware Approximate
Tue 06:59:33 PM 41.1400 -82.9569 241° Southwest 163 188 8,100  Level Indianapolis Center
Tue 07:00:00 PM 41.1173 -82.9277 238° Southwest  Level FlightAware Approximate
Tue 07:00:35 PM 41.1183 -83.0097 241° Southwest 162 186 8,000  Level Indianapolis Center
Tue 07:01:00 PM 41.0947 -82.9759 238° Southwest  Level FlightAware Approximate
Tue 07:01:37 PM 41.0956 -83.0628 240° Southwest 164 189 8,100  Level Indianapolis Center
Tue 07:02:00 PM 41.0724 -83.0246 240° Southwest  Level FlightAware Approximate
Tue 07:02:39 PM 41.0731 -83.1156 241° Southwest 163 188 8,000  Level Indianapolis Center
Tue 07:03:41 PM 41.0517 -83.1683 242° Southwest 163 188 8,000 48 Level Indianapolis Center
Tue 07:04:43 PM 41.0303 -83.2214 242° Southwest 162 186 8,100  Climbing Indianapolis Center
Tue 07:05:45 PM 41.0081 -83.2733 240° Southwest 162 186 8,000 -48 Descending Indianapolis Center
Tue 07:06:47 PM 40.9819 -83.3339 240° Southwest 161 185 8,000 48 Level Indianapolis Center
Tue 07:07:49 PM 40.9583 -83.3864 239° Southwest 163 188 8,100 49 Climbing Indianapolis Center
Tue 07:08:50 PM 40.9353 -83.4383 240° Southwest 163 188 8,100 -49 Level Indianapolis Center
Tue 07:09:52 PM 40.9128 -83.4900 240° Southwest 161 185 8,000 -48 Descending Indianapolis Center
Tue 07:10:54 PM 40.8869 -83.5469 239° Southwest 163 188 8,000 48 Level Indianapolis Center
Tue 07:11:56 PM 40.8644 -83.5992 240° Southwest 163 188 8,100 48 Climbing Indianapolis Center
Tue 07:12:58 PM 40.8414 -83.6506 239° Southwest 162 186 8,100 -48 Level Indianapolis Center
Tue 07:14:00 PM 40.8189 -83.7039 241° Southwest 164 189 8,000 -48 Descending Indianapolis Center
Tue 07:15:02 PM 40.7958 -83.7550 239° Southwest 162 186 8,000  Level Indianapolis Center
Tue 07:16:04 PM 40.7733 -83.8081 241° Southwest 163 188 8,000  Level Indianapolis Center
Tue 07:17:06 PM 40.7522 -83.8608 242° Southwest 163 188 8,000  Level Indianapolis Center
Tue 07:18:07 PM 40.7294 -83.9131 240° Southwest 163 188 8,000  Level Indianapolis Center
Tue 07:19:09 PM 40.7039 -83.9744 241° Southwest 163 188 8,000  Level Indianapolis Center
Tue 07:20:11 PM 40.6789 -84.0236 236° Southwest 161 185 8,000  Level Indianapolis Center
Tue 07:21:13 PM 40.6525 -84.0725 235° Southwest 161 185 8,000  Level Indianapolis Center
Tue 07:21:48 PM 40.6344 -84.1042 233° Southwest 160 184 8,000 97 Level Indianapolis Center
Tue 07:22:15 PM 40.6269 -84.1219 241° Southwest 162 186 8,100  Climbing Indianapolis Center
Tue 07:23:17 PM 40.6006 -84.1700 234° Southwest 161 185 8,000 -48 Descending Indianapolis Center
Tue 07:24:19 PM 40.5731 -84.2192 234° Southwest 163 188 8,000  Level Indianapolis Center
Tue 07:25:20 PM 40.5469 -84.2675 235° Southwest 163 188 8,000  Level Indianapolis Center
Tue 07:26:22 PM 40.5167 -84.3247 235° Southwest 163 188 8,000  Level Indianapolis Center
Tue 07:27:23 PM 40.4894 -84.3761 235° Southwest 163 188 8,000  Level Indianapolis Center
Tue 07:28:24 PM 40.4625 -84.4244 234° Southwest 163 188 8,000  Level Indianapolis Center
Tue 07:29:25 PM 40.4378 -84.4731 236° Southwest 163 188 8,000  Level Indianapolis Center
Tue 07:30:26 PM 40.4108 -84.5217 234° Southwest 163 188 8,000  Level Indianapolis Center
Tue 07:31:26 PM 40.3858 -84.5703 236° Southwest 164 189 8,000  Level Indianapolis Center
Tue 07:32:27 PM 40.3564 -84.6236 234° Southwest 164 189 8,000  Level Indianapolis Center
Tue 07:33:28 PM 40.3317 -84.6694 235° Southwest 162 186 8,000  Level Indianapolis Center
Tue 07:34:29 PM 40.3044 -84.7203 235° Southwest 164 189 8,000  Level Indianapolis Center
Tue 07:35:39 PM 40.2750 -84.7739 234° Southwest 161 185 8,000  Level Indianapolis Center
Tue 07:36:41 PM 40.2481 -84.8225 234° Southwest 163 188 8,000  Level Indianapolis Center
Tue 07:37:43 PM 40.2228 -84.8728 237° Southwest 164 189 8,000  Level Indianapolis Center
Tue 07:38:45 PM 40.1953 -84.9233 235° Southwest 162 186 8,000  Level Indianapolis Center
Tue 07:39:33 PM 40.1728 -84.9642 234° Southwest 164 189 8,000  Level Indianapolis Center
Tue 07:40:33 PM 40.1456 -85.0122 233° Southwest 164 189 8,000  Level Indianapolis Center
Tue 07:40:48 PM 40.1419 -85.0214 243° Southwest 164 189 8,000  Level Indianapolis Center
Tue 07:41:34 PM 40.1225 -85.0608 237° Southwest 162 186 8,000  Level Indianapolis Center
Tue 07:41:50 PM 40.1172 -85.0708 235° Southwest 163 188 8,000  Level Indianapolis Center
Tue 07:42:52 PM 40.0908 -85.1186 234° Southwest 161 185 8,000 48 Level Indianapolis Center
Tue 07:43:54 PM 40.0658 -85.1672 236° Southwest 161 185 8,100 49 Climbing Indianapolis Center
Tue 07:44:55 PM 40.0608 -85.2375 265° West 166 191 8,100 -49 Level Indianapolis Center
Tue 07:45:57 PM 40.0569 -85.2986 265° West 167 192 8,000 -339 Descending Indianapolis Center
Tue 07:46:59 PM 40.0522 -85.3628 265° West 176 203 7,400 -581 Descending Indianapolis Center
Tue 07:48:01 PM 40.0486 -85.4292 266° West 181 208 6,800 -537 Descending Indianapolis Center
Tue 07:49:02 PM 40.0417 -85.4972 262° West 185 213 6,300 -439 Descending Indianapolis Center
Tue 07:50:04 PM 40.0381 -85.5631 266° West 184 212 5,900 -194 Descending Indianapolis Center
Tue 07:51:06 PM 40.0347 -85.6256 266° West 178 205 5,900 -339 Level Indianapolis Center
Tue 07:52:08 PM 40.0297 -85.6886 264° West 174 200 5,200 -634 Descending Indianapolis Center
Tue 07:53:09 PM 40.0253 -85.7672 266° West 181 208 4,600 -537 Descending Indianapolis Center
Tue 07:54:11 PM 40.0219 -85.8319 266° West 180 207 4,100 -339 Descending Indianapolis Center
Tue 07:55:13 PM 40.0175 -85.8942 265° West 176 203 3,900 -146 Descending Indianapolis Center
Tue 07:56:14 PM 40.0131 -85.9536 264° West 170 196 3,800 -244 Descending Indianapolis Center
Tue 07:57:16 PM 40.0069 -86.0144 263° West 168 193 3,400 -387 Descending Indianapolis Center
Tue 07:58:18 PM 39.9761 -86.0619 230° Southwest 170 196 3,000 -242 Descending Indianapolis Center
Tue 07:59:20 PM 39.9428 -86.1139 230° Southwest 169 194 2,900 -97 Descending Indianapolis Center

Login

Don't have an account? Register now (free) for customized features, flight alerts, and more!